sensor_id;sensor_type;location;lat;lon;timestamp;temperature;humidity
23540;DHT22;11947;50.810;4.394;2023-01-26T00:01:36;1.10;99.90
23540;DHT22;11947;50.810;4.394;2023-01-26T00:04:02;1.10;99.90
23540;DHT22;11947;50.810;4.394;2023-01-26T00:06:27;1.00;99.90
23540;DHT22;11947;50.810;4.394;2023-01-26T00:08:54;1.00;99.90
23540;DHT22;11947;50.810;4.394;2023-01-26T00:11:24;1.10;99.90
23540;DHT22;11947;50.810;4.394;2023-01-26T00:13:56;1.20;99.90
23540;DHT22;11947;50.810;4.394;2023-01-26T00:16:22;1.20;99.90
23540;DHT22;11947;50.810;4.394;2023-01-26T00:18:47;1.30;99.90
23540;DHT22;11947;50.810;4.394;2023-01-26T00:21:18;1.10;99.90
23540;DHT22;11947;50.810;4.394;2023-01-26T00:23:45;1.00;99.90
23540;DHT22;11947;50.810;4.394;2023-01-26T00:26:18;1.00;99.90
23540;DHT22;11947;50.810;4.394;2023-01-26T00:28:44;1.00;99.90
23540;DHT22;11947;50.810;4.394;2023-01-26T00:31:15;0.90;99.90
23540;DHT22;11947;50.810;4.394;2023-01-26T00:33:41;0.80;99.90
23540;DHT22;11947;50.810;4.394;2023-01-26T00:36:07;0.60;99.90
23540;DHT22;11947;50.810;4.394;2023-01-26T00:38:32;0.60;99.90
23540;DHT22;11947;50.810;4.394;2023-01-26T00:40:58;0.80;99.90
23540;DHT22;11947;50.810;4.394;2023-01-26T00:43:24;0.80;99.90
23540;DHT22;11947;50.810;4.394;2023-01-26T00:45:49;0.80;99.90
23540;DHT22;11947;50.810;4.394;2023-01-26T00:48:15;0.80;99.90
23540;DHT22;11947;50.810;4.394;2023-01-26T00:50:41;0.70;99.90
23540;DHT22;11947;50.810;4.394;2023-01-26T00:53:09;0.80;99.90
23540;DHT22;11947;50.810;4.394;2023-01-26T00:55:34;0.90;99.90
23540;DHT22;11947;50.810;4.394;2023-01-26T00:58:02;1.00;99.90
23540;DHT22;11947;50.810;4.394;2023-01-26T01:00:28;0.80;99.90
23540;DHT22;11947;50.810;4.394;2023-01-26T01:02:54;0.80;99.90
23540;DHT22;11947;50.810;4.394;2023-01-26T01:05:24;1.00;99.90
23540;DHT22;11947;50.810;4.394;2023-01-26T01:07:53;0.90;99.90
23540;DHT22;11947;50.810;4.394;2023-01-26T01:10:19;1.00;99.90
23540;DHT22;11947;50.810;4.394;2023-01-26T01:12:47;1.10;99.90
23540;DHT22;11947;50.810;4.394;2023-01-26T01:15:13;1.10;99.90
23540;DHT22;11947;50.810;4.394;2023-01-26T01:17:39;1.20;99.90
23540;DHT22;11947;50.810;4.394;2023-01-26T01:20:10;1.30;99.90
23540;DHT22;11947;50.810;4.394;2023-01-26T01:22:36;1.40;99.90
23540;DHT22;11947;50.810;4.394;2023-01-26T01:25:02;1.20;99.90
23540;DHT22;11947;50.810;4.394;2023-01-26T01:27:28;1.30;99.90
23540;DHT22;11947;50.810;4.394;2023-01-26T01:29:53;1.20;99.90
23540;DHT22;11947;50.810;4.394;2023-01-26T01:32:19;1.10;99.90
23540;DHT22;11947;50.810;4.394;2023-01-26T01:34:46;1.10;99.90
23540;DHT22;11947;50.810;4.394;2023-01-26T01:37:12;1.20;99.90
23540;DHT22;11947;50.810;4.394;2023-01-26T01:39:38;1.20;99.90
23540;DHT22;11947;50.810;4.394;2023-01-26T01:42:03;1.10;99.90
23540;DHT22;11947;50.810;4.394;2023-01-26T01:44:29;1.20;99.90
23540;DHT22;11947;50.810;4.394;2023-01-26T01:47:05;1.10;99.90
23540;DHT22;11947;50.810;4.394;2023-01-26T01:49:44;1.20;99.90
23540;DHT22;11947;50.810;4.394;2023-01-26T01:52:28;1.10;99.90
23540;DHT22;11947;50.810;4.394;2023-01-26T01:55:09;1.20;99.90
23540;DHT22;11947;50.810;4.394;2023-01-26T01:57:46;1.40;99.90
23540;DHT22;11947;50.810;4.394;2023-01-26T02:00:22;1.30;99.90
23540;DHT22;11947;50.810;4.394;2023-01-26T02:02:58;1.10;99.90
23540;DHT22;11947;50.810;4.394;2023-01-26T02:08:18;1.00;99.90
23540;DHT22;11947;50.810;4.394;2023-01-26T02:10:46;1.20;99.90
23540;DHT22;11947;50.810;4.394;2023-01-26T02:13:15;1.30;99.90
23540;DHT22;11947;50.810;4.394;2023-01-26T02:15:42;1.50;99.90
23540;DHT22;11947;50.810;4.394;2023-01-26T02:18:08;1.60;99.90
23540;DHT22;11947;50.810;4.394;2023-01-26T02:26:14;1.20;99.90
23540;DHT22;11947;50.810;4.394;2023-01-26T02:28:41;1.20;99.90
23540;DHT22;11947;50.810;4.394;2023-01-26T02:31:09;1.20;99.90
23540;DHT22;11947;50.810;4.394;2023-01-26T02:33:35;1.30;99.90
23540;DHT22;11947;50.810;4.394;2023-01-26T02:36:02;1.30;99.90
23540;DHT22;11947;50.810;4.394;2023-01-26T02:38:38;1.40;99.90
23540;DHT22;11947;50.810;4.394;2023-01-26T02:41:07;1.40;99.90
23540;DHT22;11947;50.810;4.394;2023-01-26T02:43:33;1.40;99.90
23540;DHT22;11947;50.810;4.394;2023-01-26T02:45:59;1.40;99.90
23540;DHT22;11947;50.810;4.394;2023-01-26T02:48:25;1.30;99.90
23540;DHT22;11947;50.810;4.394;2023-01-26T02:51:11;1.20;99.90
23540;DHT22;11947;50.810;4.394;2023-01-26T02:53:36;1.30;99.90
23540;DHT22;11947;50.810;4.394;2023-01-26T02:56:02;1.50;99.90
23540;DHT22;11947;50.810;4.394;2023-01-26T02:58:28;1.50;99.90
23540;DHT22;11947;50.810;4.394;2023-01-26T03:00:53;1.40;99.90
23540;DHT22;11947;50.810;4.394;2023-01-26T03:03:22;1.50;99.90
23540;DHT22;11947;50.810;4.394;2023-01-26T03:05:48;1.60;99.90
23540;DHT22;11947;50.810;4.394;2023-01-26T03:08:14;1.50;99.90
23540;DHT22;11947;50.810;4.394;2023-01-26T03:10:40;1.60;99.90
23540;DHT22;11947;50.810;4.394;2023-01-26T03:13:06;1.70;99.90
23540;DHT22;11947;50.810;4.394;2023-01-26T03:15:31;1.70;99.90
23540;DHT22;11947;50.810;4.394;2023-01-26T03:18:16;1.80;99.90
23540;DHT22;11947;50.810;4.394;2023-01-26T03:21:04;1.80;99.90
23540;DHT22;11947;50.810;4.394;2023-01-26T03:23:49;1.80;99.90
23540;DHT22;11947;50.810;4.394;2023-01-26T03:26:34;1.80;99.90
23540;DHT22;11947;50.810;4.394;2023-01-26T03:29:18;1.80;99.90
23540;DHT22;11947;50.810;4.394;2023-01-26T03:31:44;1.90;99.90
23540;DHT22;11947;50.810;4.394;2023-01-26T03:34:10;1.80;99.90
23540;DHT22;11947;50.810;4.394;2023-01-26T03:36:36;1.80;99.90
23540;DHT22;11947;50.810;4.394;2023-01-26T03:39:03;1.80;99.90
23540;DHT22;11947;50.810;4.394;2023-01-26T03:41:28;1.80;99.90
23540;DHT22;11947;50.810;4.394;2023-01-26T03:44:13;1.80;99.90
23540;DHT22;11947;50.810;4.394;2023-01-26T03:46:56;1.90;99.90
23540;DHT22;11947;50.810;4.394;2023-01-26T03:49:41;1.80;99.90
23540;DHT22;11947;50.810;4.394;2023-01-26T03:52:25;1.80;99.90
23540;DHT22;11947;50.810;4.394;2023-01-26T03:55:09;1.80;99.90
23540;DHT22;11947;50.810;4.394;2023-01-26T03:57:53;1.80;99.90
23540;DHT22;11947;50.810;4.394;2023-01-26T04:00:19;1.80;99.90
23540;DHT22;11947;50.810;4.394;2023-01-26T04:02:46;1.90;99.90
23540;DHT22;11947;50.810;4.394;2023-01-26T04:05:30;1.70;99.90
23540;DHT22;11947;50.810;4.394;2023-01-26T04:08:14;1.60;99.90
23540;DHT22;11947;50.810;4.394;2023-01-26T04:10:50;1.80;99.90
23540;DHT22;11947;50.810;4.394;2023-01-26T04:13:20;1.90;99.90
23540;DHT22;11947;50.810;4.394;2023-01-26T04:16:05;2.00;99.90
23540;DHT22;11947;50.810;4.394;2023-01-26T04:18:50;1.90;99.90
23540;DHT22;11947;50.810;4.394;2023-01-26T04:21:34;1.80;99.90
23540;DHT22;11947;50.810;4.394;2023-01-26T04:24:02;1.80;99.90
23540;DHT22;11947;50.810;4.394;2023-01-26T04:26:35;1.60;99.90
23540;DHT22;11947;50.810;4.394;2023-01-26T04:29:06;1.60;99.90
23540;DHT22;11947;50.810;4.394;2023-01-26T04:31:32;1.80;99.90
23540;DHT22;11947;50.810;4.394;2023-01-26T04:34:02;1.70;99.90
23540;DHT22;11947;50.810;4.394;2023-01-26T04:36:28;1.90;99.90
23540;DHT22;11947;50.810;4.394;2023-01-26T04:38:54;1.90;99.90
23540;DHT22;11947;50.810;4.394;2023-01-26T04:41:20;1.80;99.90
23540;DHT22;11947;50.810;4.394;2023-01-26T04:43:46;2.00;99.90
23540;DHT22;11947;50.810;4.394;2023-01-26T04:46:12;2.00;99.90
23540;DHT22;11947;50.810;4.394;2023-01-26T04:48:38;1.90;99.90
23540;DHT22;11947;50.810;4.394;2023-01-26T04:51:09;1.90;99.90
23540;DHT22;11947;50.810;4.394;2023-01-26T04:53:36;1.90;99.90
23540;DHT22;11947;50.810;4.394;2023-01-26T04:56:02;1.80;99.90
23540;DHT22;11947;50.810;4.394;2023-01-26T04:58:27;1.80;99.90
23540;DHT22;11947;50.810;4.394;2023-01-26T05:00:57;1.90;99.90
23540;DHT22;11947;50.810;4.394;2023-01-26T05:03:24;1.90;99.90
23540;DHT22;11947;50.810;4.394;2023-01-26T05:05:52;1.80;99.90
23540;DHT22;11947;50.810;4.394;2023-01-26T05:08:19;1.80;99.90
23540;DHT22;11947;50.810;4.394;2023-01-26T05:10:45;1.80;99.90
23540;DHT22;11947;50.810;4.394;2023-01-26T05:13:14;1.90;99.90
23540;DHT22;11947;50.810;4.394;2023-01-26T05:15:40;1.90;99.90
23540;DHT22;11947;50.810;4.394;2023-01-26T05:18:06;2.00;99.90
23540;DHT22;11947;50.810;4.394;2023-01-26T05:20:32;2.00;99.90
23540;DHT22;11947;50.810;4.394;2023-01-26T05:22:58;2.00;99.90
23540;DHT22;11947;50.810;4.394;2023-01-26T05:25:24;2.10;99.90
23540;DHT22;11947;50.810;4.394;2023-01-26T05:27:49;2.10;99.90
23540;DHT22;11947;50.810;4.394;2023-01-26T05:30:17;2.00;99.90
23540;DHT22;11947;50.810;4.394;2023-01-26T05:32:42;2.00;99.90
23540;DHT22;11947;50.810;4.394;2023-01-26T05:35:08;2.00;99.90
23540;DHT22;11947;50.810;4.394;2023-01-26T05:37:34;2.10;99.90
23540;DHT22;11947;50.810;4.394;2023-01-26T05:39:59;2.20;99.90
23540;DHT22;11947;50.810;4.394;2023-01-26T05:42:25;2.20;99.90
23540;DHT22;11947;50.810;4.394;2023-01-26T05:44:51;2.10;99.90
23540;DHT22;11947;50.810;4.394;2023-01-26T05:47:17;2.10;99.90
23540;DHT22;11947;50.810;4.394;2023-01-26T05:49:43;2.10;99.90
23540;DHT22;11947;50.810;4.394;2023-01-26T05:52:18;2.20;99.90
23540;DHT22;11947;50.810;4.394;2023-01-26T05:54:44;2.40;99.90
23540;DHT22;11947;50.810;4.394;2023-01-26T05:57:10;2.20;99.90
23540;DHT22;11947;50.810;4.394;2023-01-26T05:59:37;2.30;99.90
23540;DHT22;11947;50.810;4.394;2023-01-26T06:02:03;2.40;99.90
23540;DHT22;11947;50.810;4.394;2023-01-26T06:04:29;2.40;99.90
23540;DHT22;11947;50.810;4.394;2023-01-26T06:06:55;2.40;99.90
23540;DHT22;11947;50.810;4.394;2023-01-26T06:09:22;2.40;99.90
23540;DHT22;11947;50.810;4.394;2023-01-26T06:11:48;2.40;99.90
23540;DHT22;11947;50.810;4.394;2023-01-26T06:14:14;2.40;99.90
23540;DHT22;11947;50.810;4.394;2023-01-26T06:16:40;2.40;99.90
23540;DHT22;11947;50.810;4.394;2023-01-26T06:19:09;2.40;99.90
23540;DHT22;11947;50.810;4.394;2023-01-26T06:21:35;2.40;99.90
23540;DHT22;11947;50.810;4.394;2023-01-26T06:24:01;2.30;99.90
23540;DHT22;11947;50.810;4.394;2023-01-26T06:26:26;2.40;99.90
23540;DHT22;11947;50.810;4.394;2023-01-26T06:28:52;2.40;99.90
23540;DHT22;11947;50.810;4.394;2023-01-26T06:31:19;2.30;99.90
23540;DHT22;11947;50.810;4.394;2023-01-26T06:33:45;2.20;99.90
23540;DHT22;11947;50.810;4.394;2023-01-26T06:36:14;2.30;99.90
23540;DHT22;11947;50.810;4.394;2023-01-26T06:38:48;2.30;99.90
23540;DHT22;11947;50.810;4.394;2023-01-26T06:41:15;2.50;99.90
23540;DHT22;11947;50.810;4.394;2023-01-26T06:43:44;2.40;99.90
23540;DHT22;11947;50.810;4.394;2023-01-26T06:46:11;2.40;99.90
23540;DHT22;11947;50.810;4.394;2023-01-26T06:48:37;2.40;99.90
23540;DHT22;11947;50.810;4.394;2023-01-26T06:56:14;2.30;99.90
23540;DHT22;11947;50.810;4.394;2023-01-26T06:58:39;2.30;99.90
23540;DHT22;11947;50.810;4.394;2023-01-26T07:01:05;2.40;99.90
23540;DHT22;11947;50.810;4.394;2023-01-26T07:03:31;2.30;99.90
23540;DHT22;11947;50.810;4.394;2023-01-26T07:05:57;2.30;99.90
23540;DHT22;11947;50.810;4.394;2023-01-26T07:08:23;2.40;99.90
23540;DHT22;11947;50.810;4.394;2023-01-26T07:10:49;2.40;99.90
23540;DHT22;11947;50.810;4.394;2023-01-26T07:13:15;2.40;99.90
23540;DHT22;11947;50.810;4.394;2023-01-26T07:15:41;2.40;99.90
23540;DHT22;11947;50.810;4.394;2023-01-26T07:18:06;2.30;99.90
23540;DHT22;11947;50.810;4.394;2023-01-26T07:20:32;2.40;99.90
23540;DHT22;11947;50.810;4.394;2023-01-26T07:23:00;2.30;99.90
23540;DHT22;11947;50.810;4.394;2023-01-26T07:25:26;2.30;99.90
23540;DHT22;11947;50.810;4.394;2023-01-26T07:27:58;2.40;99.90
23540;DHT22;11947;50.810;4.394;2023-01-26T07:30:24;2.30;99.90
23540;DHT22;11947;50.810;4.394;2023-01-26T07:32:50;2.40;99.90
23540;DHT22;11947;50.810;4.394;2023-01-26T07:35:16;2.40;99.90
23540;DHT22;11947;50.810;4.394;2023-01-26T07:37:42;2.40;99.90
23540;DHT22;11947;50.810;4.394;2023-01-26T07:40:08;2.30;99.90
23540;DHT22;11947;50.810;4.394;2023-01-26T07:42:34;2.30;99.90
23540;DHT22;11947;50.810;4.394;2023-01-26T07:45:00;2.30;99.90
23540;DHT22;11947;50.810;4.394;2023-01-26T07:47:26;2.40;99.90
23540;DHT22;11947;50.810;4.394;2023-01-26T07:49:52;2.30;99.90
23540;DHT22;11947;50.810;4.394;2023-01-26T07:52:17;2.30;99.90
23540;DHT22;11947;50.810;4.394;2023-01-26T07:54:44;2.40;99.90
23540;DHT22;11947;50.810;4.394;2023-01-26T07:57:11;2.30;99.90
23540;DHT22;11947;50.810;4.394;2023-01-26T07:59:37;2.50;99.90
23540;DHT22;11947;50.810;4.394;2023-01-26T08:02:02;2.40;99.90
23540;DHT22;11947;50.810;4.394;2023-01-26T08:04:28;2.50;99.90
23540;DHT22;11947;50.810;4.394;2023-01-26T08:06:54;2.60;99.90
23540;DHT22;11947;50.810;4.394;2023-01-26T08:09:20;2.50;99.90
23540;DHT22;11947;50.810;4.394;2023-01-26T08:11:46;2.50;99.90
23540;DHT22;11947;50.810;4.394;2023-01-26T08:14:11;2.60;99.90
23540;DHT22;11947;50.810;4.394;2023-01-26T08:16:37;2.60;99.90
23540;DHT22;11947;50.810;4.394;2023-01-26T08:19:03;2.60;99.90
23540;DHT22;11947;50.810;4.394;2023-01-26T08:21:29;2.60;99.90
23540;DHT22;11947;50.810;4.394;2023-01-26T08:23:55;2.70;99.90
23540;DHT22;11947;50.810;4.394;2023-01-26T08:26:26;2.80;99.90
23540;DHT22;11947;50.810;4.394;2023-01-26T08:28:53;2.70;99.90
23540;DHT22;11947;50.810;4.394;2023-01-26T08:31:20;2.80;99.90
23540;DHT22;11947;50.810;4.394;2023-01-26T08:33:50;2.80;99.90
23540;DHT22;11947;50.810;4.394;2023-01-26T08:36:20;2.80;99.90
23540;DHT22;11947;50.810;4.394;2023-01-26T08:38:48;3.00;99.90
23540;DHT22;11947;50.810;4.394;2023-01-26T08:41:14;2.90;99.90
23540;DHT22;11947;50.810;4.394;2023-01-26T08:43:45;3.00;99.90
23540;DHT22;11947;50.810;4.394;2023-01-26T08:46:24;2.90;99.90
23540;DHT22;11947;50.810;4.394;2023-01-26T08:48:53;3.00;99.90
23540;DHT22;11947;50.810;4.394;2023-01-26T08:51:21;3.00;99.90
23540;DHT22;11947;50.810;4.394;2023-01-26T08:53:53;3.10;99.90
23540;DHT22;11947;50.810;4.394;2023-01-26T08:56:35;3.20;99.90
23540;DHT22;11947;50.810;4.394;2023-01-26T08:59:01;3.20;99.90
23540;DHT22;11947;50.810;4.394;2023-01-26T09:01:28;3.40;99.90
23540;DHT22;11947;50.810;4.394;2023-01-26T09:03:54;3.40;99.90
23540;DHT22;11947;50.810;4.394;2023-01-26T09:06:25;3.40;99.90
23540;DHT22;11947;50.810;4.394;2023-01-26T09:08:56;3.40;99.90
23540;DHT22;11947;50.810;4.394;2023-01-26T09:11:22;3.50;99.90
23540;DHT22;11947;50.810;4.394;2023-01-26T09:13:51;3.60;99.90
23540;DHT22;11947;50.810;4.394;2023-01-26T09:16:21;3.60;99.90
23540;DHT22;11947;50.810;4.394;2023-01-26T09:18:51;3.60;99.90
23540;DHT22;11947;50.810;4.394;2023-01-26T09:21:18;3.70;99.90
23540;DHT22;11947;50.810;4.394;2023-01-26T09:23:45;3.90;99.90
23540;DHT22;11947;50.810;4.394;2023-01-26T09:26:12;3.90;99.90
23540;DHT22;11947;50.810;4.394;2023-01-26T09:28:37;3.90;99.90
23540;DHT22;11947;50.810;4.394;2023-01-26T09:31:07;3.90;99.90
23540;DHT22;11947;50.810;4.394;2023-01-26T09:33:34;3.90;99.90
23540;DHT22;11947;50.810;4.394;2023-01-26T09:36:09;4.00;99.90
23540;DHT22;11947;50.810;4.394;2023-01-26T09:38:35;4.00;99.90
23540;DHT22;11947;50.810;4.394;2023-01-26T09:43:39;4.10;99.90
23540;DHT22;11947;50.810;4.394;2023-01-26T09:48:48;4.10;99.90
23540;DHT22;11947;50.810;4.394;2023-01-26T09:56:43;3.80;99.90
23540;DHT22;11947;50.810;4.394;2023-01-26T09:59:43;4.00;99.90
23540;DHT22;11947;50.810;4.394;2023-01-26T10:02:22;4.00;99.90
23540;DHT22;11947;50.810;4.394;2023-01-26T10:04:55;4.10;99.90
23540;DHT22;11947;50.810;4.394;2023-01-26T10:07:21;4.10;99.90
23540;DHT22;11947;50.810;4.394;2023-01-26T10:09:49;4.10;99.90
23540;DHT22;11947;50.810;4.394;2023-01-26T10:12:28;4.10;99.90
23540;DHT22;11947;50.810;4.394;2023-01-26T10:15:04;4.20;99.90
23540;DHT22;11947;50.810;4.394;2023-01-26T10:17:40;4.30;99.90
23540;DHT22;11947;50.810;4.394;2023-01-26T10:20:30;4.30;99.90
23540;DHT22;11947;50.810;4.394;2023-01-26T10:23:04;4.40;99.90
23540;DHT22;11947;50.810;4.394;2023-01-26T10:25:36;4.40;99.90
23540;DHT22;11947;50.810;4.394;2023-01-26T10:28:25;4.30;99.90
23540;DHT22;11947;50.810;4.394;2023-01-26T10:30:52;4.40;99.90
23540;DHT22;11947;50.810;4.394;2023-01-26T10:33:24;4.50;99.90
23540;DHT22;11947;50.810;4.394;2023-01-26T10:35:51;4.40;99.90
23540;DHT22;11947;50.810;4.394;2023-01-26T10:43:40;4.60;99.90
23540;DHT22;11947;50.810;4.394;2023-01-26T10:46:32;4.60;99.90
23540;DHT22;11947;50.810;4.394;2023-01-26T10:49:14;4.60;99.90
23540;DHT22;11947;50.810;4.394;2023-01-26T10:51:45;4.50;99.90
23540;DHT22;11947;50.810;4.394;2023-01-26T10:54:29;4.60;99.90
23540;DHT22;11947;50.810;4.394;2023-01-26T10:57:03;4.60;99.90
23540;DHT22;11947;50.810;4.394;2023-01-26T10:59:32;4.50;99.90
23540;DHT22;11947;50.810;4.394;2023-01-26T11:02:34;4.60;99.90
23540;DHT22;11947;50.810;4.394;2023-01-26T11:12:48;4.50;99.90
23540;DHT22;11947;50.810;4.394;2023-01-26T11:15:34;4.50;99.90
23540;DHT22;11947;50.810;4.394;2023-01-26T11:20:46;4.50;99.90
23540;DHT22;11947;50.810;4.394;2023-01-26T11:37:35;4.60;99.90
23540;DHT22;11947;50.810;4.394;2023-01-26T11:46:07;4.60;99.90
23540;DHT22;11947;50.810;4.394;2023-01-26T11:51:46;4.60;99.90
23540;DHT22;11947;50.810;4.394;2023-01-26T11:54:31;4.70;99.90
23540;DHT22;11947;50.810;4.394;2023-01-26T12:00:02;4.70;99.90
23540;DHT22;11947;50.810;4.394;2023-01-26T12:02:32;4.60;99.90
23540;DHT22;11947;50.810;4.394;2023-01-26T12:05:16;4.70;99.90
23540;DHT22;11947;50.810;4.394;2023-01-26T12:08:05;4.80;99.90
23540;DHT22;11947;50.810;4.394;2023-01-26T12:10:53;4.90;99.90
23540;DHT22;11947;50.810;4.394;2023-01-26T12:13:41;5.00;99.90
23540;DHT22;11947;50.810;4.394;2023-01-26T12:16:59;5.00;99.90
23540;DHT22;11947;50.810;4.394;2023-01-26T12:19:35;4.90;99.90
23540;DHT22;11947;50.810;4.394;2023-01-26T12:22:22;5.00;99.90
23540;DHT22;11947;50.810;4.394;2023-01-26T12:25:33;5.00;99.90
23540;DHT22;11947;50.810;4.394;2023-01-26T12:33:30;5.20;99.90
23540;DHT22;11947;50.810;4.394;2023-01-26T12:39:15;5.30;99.90
23540;DHT22;11947;50.810;4.394;2023-01-26T12:44:37;5.30;99.90
23540;DHT22;11947;50.810;4.394;2023-01-26T12:47:15;5.30;99.90
23540;DHT22;11947;50.810;4.394;2023-01-26T12:50:00;5.50;99.90
23540;DHT22;11947;50.810;4.394;2023-01-26T12:52:50;5.70;99.90
23540;DHT22;11947;50.810;4.394;2023-01-26T13:01:13;6.10;99.90
23540;DHT22;11947;50.810;4.394;2023-01-26T13:04:02;6.20;99.90
23540;DHT22;11947;50.810;4.394;2023-01-26T13:06:28;6.30;99.90
23540;DHT22;11947;50.810;4.394;2023-01-26T13:11:45;6.30;99.90
23540;DHT22;11947;50.810;4.394;2023-01-26T13:14:30;6.40;99.90
23540;DHT22;11947;50.810;4.394;2023-01-26T13:16:57;6.50;99.90
23540;DHT22;11947;50.810;4.394;2023-01-26T13:19:50;6.60;99.90
23540;DHT22;11947;50.810;4.394;2023-01-26T13:27:32;8.00;99.90
23540;DHT22;11947;50.810;4.394;2023-01-26T13:29:58;8.00;99.90
23540;DHT22;11947;50.810;4.394;2023-01-26T13:34:57;7.90;99.90
23540;DHT22;11947;50.810;4.394;2023-01-26T13:37:48;7.90;99.90
23540;DHT22;11947;50.810;4.394;2023-01-26T13:48:52;8.00;99.90
23540;DHT22;11947;50.810;4.394;2023-01-26T13:51:27;7.90;99.90
23540;DHT22;11947;50.810;4.394;2023-01-26T13:54:12;7.80;99.90
23540;DHT22;11947;50.810;4.394;2023-01-26T13:57:03;7.60;99.90
23540;DHT22;11947;50.810;4.394;2023-01-26T13:59:27;7.80;99.90
23540;DHT22;11947;50.810;4.394;2023-01-26T14:01:54;7.50;99.90
23540;DHT22;11947;50.810;4.394;2023-01-26T14:04:22;7.40;99.90
23540;DHT22;11947;50.810;4.394;2023-01-26T14:07:04;7.40;99.90
23540;DHT22;11947;50.810;4.394;2023-01-26T14:09:34;7.20;99.90
23540;DHT22;11947;50.810;4.394;2023-01-26T14:12:05;7.20;99.90
23540;DHT22;11947;50.810;4.394;2023-01-26T14:14:34;7.10;99.90
23540;DHT22;11947;50.810;4.394;2023-01-26T14:17:06;7.20;99.90
23540;DHT22;11947;50.810;4.394;2023-01-26T14:19:38;7.20;99.90
23540;DHT22;11947;50.810;4.394;2023-01-26T14:22:13;7.10;99.90
23540;DHT22;11947;50.810;4.394;2023-01-26T14:24:40;7.10;99.90
23540;DHT22;11947;50.810;4.394;2023-01-26T14:27:36;7.00;99.90
23540;DHT22;11947;50.810;4.394;2023-01-26T14:30:29;7.10;99.90
23540;DHT22;11947;50.810;4.394;2023-01-26T14:35:35;7.10;99.90
23540;DHT22;11947;50.810;4.394;2023-01-26T14:38:12;7.10;99.90
23540;DHT22;11947;50.810;4.394;2023-01-26T14:40:46;7.30;99.90
23540;DHT22;11947;50.810;4.394;2023-01-26T14:43:13;7.30;99.90
23540;DHT22;11947;50.810;4.394;2023-01-26T14:45:42;7.30;99.90
23540;DHT22;11947;50.810;4.394;2023-01-26T14:48:14;7.40;99.90
23540;DHT22;11947;50.810;4.394;2023-01-26T14:50:42;7.40;99.90
23540;DHT22;11947;50.810;4.394;2023-01-26T14:53:19;7.30;99.90
23540;DHT22;11947;50.810;4.394;2023-01-26T14:55:45;7.30;99.90
23540;DHT22;11947;50.810;4.394;2023-01-26T14:58:18;7.30;99.90
23540;DHT22;11947;50.810;4.394;2023-01-26T15:00:47;7.20;99.90
23540;DHT22;11947;50.810;4.394;2023-01-26T15:03:22;7.40;99.90
23540;DHT22;11947;50.810;4.394;2023-01-26T15:05:48;7.40;99.90
23540;DHT22;11947;50.810;4.394;2023-01-26T15:08:27;7.20;99.90
23540;DHT22;11947;50.810;4.394;2023-01-26T15:11:00;7.30;99.90
23540;DHT22;11947;50.810;4.394;2023-01-26T15:13:46;7.40;99.90
23540;DHT22;11947;50.810;4.394;2023-01-26T15:16:23;7.30;99.90
23540;DHT22;11947;50.810;4.394;2023-01-26T15:19:01;7.20;99.90
23540;DHT22;11947;50.810;4.394;2023-01-26T15:21:35;7.20;99.90
23540;DHT22;11947;50.810;4.394;2023-01-26T15:24:13;7.10;99.90
23540;DHT22;11947;50.810;4.394;2023-01-26T15:26:39;7.10;99.90
23540;DHT22;11947;50.810;4.394;2023-01-26T15:29:24;6.90;99.90
23540;DHT22;11947;50.810;4.394;2023-01-26T15:31:55;6.90;99.90
23540;DHT22;11947;50.810;4.394;2023-01-26T15:34:34;6.80;99.90
23540;DHT22;11947;50.810;4.394;2023-01-26T15:37:02;6.80;99.90
23540;DHT22;11947;50.810;4.394;2023-01-26T15:39:28;6.80;99.90
23540;DHT22;11947;50.810;4.394;2023-01-26T15:42:06;7.00;99.90
23540;DHT22;11947;50.810;4.394;2023-01-26T15:44:35;7.00;99.90
23540;DHT22;11947;50.810;4.394;2023-01-26T15:47:07;7.00;99.90
23540;DHT22;11947;50.810;4.394;2023-01-26T15:49:33;7.00;99.90
23540;DHT22;11947;50.810;4.394;2023-01-26T15:51:59;7.00;99.90
23540;DHT22;11947;50.810;4.394;2023-01-26T15:54:25;7.00;99.90
23540;DHT22;11947;50.810;4.394;2023-01-26T15:56:59;7.10;99.90
23540;DHT22;11947;50.810;4.394;2023-01-26T15:59:25;7.10;99.90
23540;DHT22;11947;50.810;4.394;2023-01-26T16:01:50;7.00;99.90
23540;DHT22;11947;50.810;4.394;2023-01-26T16:04:16;7.10;99.90
23540;DHT22;11947;50.810;4.394;2023-01-26T16:06:42;7.10;99.90
23540;DHT22;11947;50.810;4.394;2023-01-26T16:09:07;7.10;99.90
23540;DHT22;11947;50.810;4.394;2023-01-26T16:11:45;7.00;99.90
23540;DHT22;11947;50.810;4.394;2023-01-26T16:14:12;7.00;99.90
23540;DHT22;11947;50.810;4.394;2023-01-26T16:16:38;7.00;99.90
23540;DHT22;11947;50.810;4.394;2023-01-26T16:19:04;7.00;99.90
23540;DHT22;11947;50.810;4.394;2023-01-26T16:21:33;7.00;99.90
23540;DHT22;11947;50.810;4.394;2023-01-26T16:24:00;7.00;99.90
23540;DHT22;11947;50.810;4.394;2023-01-26T16:26:26;7.10;99.90
23540;DHT22;11947;50.810;4.394;2023-01-26T16:28:52;6.90;99.90
23540;DHT22;11947;50.810;4.394;2023-01-26T16:31:23;6.70;99.90
23540;DHT22;11947;50.810;4.394;2023-01-26T16:33:50;6.70;99.90
23540;DHT22;11947;50.810;4.394;2023-01-26T16:36:18;6.80;99.90
23540;DHT22;11947;50.810;4.394;2023-01-26T16:38:44;6.80;99.90
23540;DHT22;11947;50.810;4.394;2023-01-26T16:45:12;6.70;99.90
23540;DHT22;11947;50.810;4.394;2023-01-26T16:48:07;6.70;99.90
23540;DHT22;11947;50.810;4.394;2023-01-26T16:51:16;6.80;99.90
23540;DHT22;11947;50.810;4.394;2023-01-26T16:54:04;6.70;99.90
23540;DHT22;11947;50.810;4.394;2023-01-26T16:56:32;6.70;99.90
23540;DHT22;11947;50.810;4.394;2023-01-26T16:59:18;6.60;99.90
23540;DHT22;11947;50.810;4.394;2023-01-26T17:01:51;6.60;99.90
23540;DHT22;11947;50.810;4.394;2023-01-26T17:14:02;6.60;99.90
23540;DHT22;11947;50.810;4.394;2023-01-26T17:23:41;6.50;99.90
23540;DHT22;11947;50.810;4.394;2023-01-26T17:26:29;6.60;99.90
23540;DHT22;11947;50.810;4.394;2023-01-26T17:29:17;6.60;99.90
23540;DHT22;11947;50.810;4.394;2023-01-26T17:35:02;6.70;99.90
23540;DHT22;11947;50.810;4.394;2023-01-26T17:41:10;6.80;99.90
23540;DHT22;11947;50.810;4.394;2023-01-26T17:50:21;6.60;99.90
23540;DHT22;11947;50.810;4.394;2023-01-26T17:52:53;6.50;99.90
23540;DHT22;11947;50.810;4.394;2023-01-26T17:55:32;6.40;99.90
23540;DHT22;11947;50.810;4.394;2023-01-26T17:57:59;6.40;99.90
23540;DHT22;11947;50.810;4.394;2023-01-26T18:00:25;6.40;99.90
23540;DHT22;11947;50.810;4.394;2023-01-26T18:02:51;6.30;99.90
23540;DHT22;11947;50.810;4.394;2023-01-26T18:05:16;6.20;99.90
23540;DHT22;11947;50.810;4.394;2023-01-26T18:07:42;6.10;99.90
23540;DHT22;11947;50.810;4.394;2023-01-26T18:10:08;6.10;99.90
23540;DHT22;11947;50.810;4.394;2023-01-26T18:12:34;6.10;99.90
23540;DHT22;11947;50.810;4.394;2023-01-26T18:15:02;6.10;99.90
23540;DHT22;11947;50.810;4.394;2023-01-26T18:17:27;6.10;99.90
23540;DHT22;11947;50.810;4.394;2023-01-26T18:19:53;6.10;99.90
23540;DHT22;11947;50.810;4.394;2023-01-26T18:22:19;6.00;99.90
23540;DHT22;11947;50.810;4.394;2023-01-26T18:24:46;6.10;99.90
23540;DHT22;11947;50.810;4.394;2023-01-26T18:27:11;6.10;99.90
23540;DHT22;11947;50.810;4.394;2023-01-26T18:29:37;6.10;99.90